sensor_id;sensor_type;location;lat;lon;timestamp;pressure;altitude;pressure_sealevel;temperature;humidity
18436;BME280;9346;52.006;4.720;2024-02-28T00:02:01;101914.09;;;5.86;100.00
18436;BME280;9346;52.006;4.720;2024-02-28T00:04:28;101909.66;;;5.85;100.00
18436;BME280;9346;52.006;4.720;2024-02-28T00:06:54;101914.31;;;5.84;100.00
18436;BME280;9346;52.006;4.720;2024-02-28T00:09:21;101908.63;;;5.86;100.00
18436;BME280;9346;52.006;4.720;2024-02-28T00:11:48;101897.69;;;5.86;100.00
18436;BME280;9346;52.006;4.720;2024-02-28T00:14:14;101900.44;;;5.86;100.00
18436;BME280;9346;52.006;4.720;2024-02-28T00:16:43;101896.00;;;5.85;100.00
18436;BME280;9346;52.006;4.720;2024-02-28T00:19:09;101898.72;;;5.85;100.00
18436;BME280;9346;52.006;4.720;2024-02-28T00:21:37;101905.25;;;5.84;100.00
18436;BME280;9346;52.006;4.720;2024-02-28T00:24:04;101903.59;;;5.83;100.00
18436;BME280;9346;52.006;4.720;2024-02-28T00:26:31;101898.13;;;5.83;100.00
18436;BME280;9346;52.006;4.720;2024-02-28T00:28:58;101902.94;;;5.81;100.00
18436;BME280;9346;52.006;4.720;2024-02-28T00:31:25;101898.53;;;5.73;100.00
18436;BME280;9346;52.006;4.720;2024-02-28T00:33:54;101905.94;;;5.66;100.00
18436;BME280;9346;52.006;4.720;2024-02-28T00:36:20;101908.25;;;5.63;100.00
18436;BME280;9346;52.006;4.720;2024-02-28T00:38:47;101910.38;;;5.61;100.00
18436;BME280;9346;52.006;4.720;2024-02-28T00:41:14;101907.22;;;5.57;100.00
18436;BME280;9346;52.006;4.720;2024-02-28T00:43:40;101911.63;;;5.58;100.00
18436;BME280;9346;52.006;4.720;2024-02-28T00:46:07;101909.56;;;5.54;100.00
18436;BME280;9346;52.006;4.720;2024-02-28T00:48:37;101903.47;;;5.52;100.00
18436;BME280;9346;52.006;4.720;2024-02-28T00:51:05;101903.69;;;5.50;100.00
18436;BME280;9346;52.006;4.720;2024-02-28T00:53:33;101907.50;;;5.49;100.00
18436;BME280;9346;52.006;4.720;2024-02-28T00:56:00;101919.03;;;5.51;100.00
18436;BME280;9346;52.006;4.720;2024-02-28T00:58:26;101915.03;;;5.54;100.00
18436;BME280;9346;52.006;4.720;2024-02-28T01:00:55;101916.50;;;5.56;100.00
18436;BME280;9346;52.006;4.720;2024-02-28T01:03:23;101913.34;;;5.59;100.00
18436;BME280;9346;52.006;4.720;2024-02-28T01:05:49;101911.63;;;5.58;100.00
18436;BME280;9346;52.006;4.720;2024-02-28T01:08:18;101907.44;;;5.56;100.00
18436;BME280;9346;52.006;4.720;2024-02-28T01:10:45;101913.75;;;5.56;100.00
18436;BME280;9346;52.006;4.720;2024-02-28T01:13:12;101918.16;;;5.57;100.00
18436;BME280;9346;52.006;4.720;2024-02-28T01:15:39;101909.16;;;5.57;100.00
18436;BME280;9346;52.006;4.720;2024-02-28T01:18:06;101910.19;;;5.56;100.00
18436;BME280;9346;52.006;4.720;2024-02-28T01:20:33;101905.13;;;5.53;100.00
18436;BME280;9346;52.006;4.720;2024-02-28T01:22:59;101901.59;;;5.52;100.00
18436;BME280;9346;52.006;4.720;2024-02-28T01:25:27;101906.19;;;5.52;100.00
18436;BME280;9346;52.006;4.720;2024-02-28T01:27:55;101907.69;;;5.48;100.00
18436;BME280;9346;52.006;4.720;2024-02-28T01:30:23;101908.13;;;5.45;100.00
18436;BME280;9346;52.006;4.720;2024-02-28T01:32:49;101904.16;;;5.41;100.00
18436;BME280;9346;52.006;4.720;2024-02-28T01:35:16;101896.16;;;5.39;100.00
18436;BME280;9346;52.006;4.720;2024-02-28T01:37:43;101910.88;;;5.38;100.00
18436;BME280;9346;52.006;4.720;2024-02-28T01:40:11;101904.59;;;5.38;100.00
18436;BME280;9346;52.006;4.720;2024-02-28T01:42:39;101899.53;;;5.35;100.00
18436;BME280;9346;52.006;4.720;2024-02-28T01:45:07;101899.53;;;5.35;100.00
18436;BME280;9346;52.006;4.720;2024-02-28T01:47:34;101899.53;;;5.35;100.00
18436;BME280;9346;52.006;4.720;2024-02-28T01:50:01;101891.56;;;5.33;100.00
18436;BME280;9346;52.006;4.720;2024-02-28T01:52:28;101900.56;;;5.34;100.00
18436;BME280;9346;52.006;4.720;2024-02-28T01:54:56;101897.03;;;5.33;100.00
18436;BME280;9346;52.006;4.720;2024-02-28T01:57:23;101892.38;;;5.34;100.00
18436;BME280;9346;52.006;4.720;2024-02-28T01:59:51;101895.97;;;5.34;100.00
18436;BME280;9346;52.006;4.720;2024-02-28T02:02:20;101895.75;;;5.36;100.00
18436;BME280;9346;52.006;4.720;2024-02-28T02:04:46;101902.06;;;5.36;100.00
18436;BME280;9346;52.006;4.720;2024-02-28T02:07:13;101897.41;;;5.37;100.00
18436;BME280;9346;52.006;4.720;2024-02-28T02:09:40;101890.91;;;5.38;100.00
18436;BME280;9346;52.006;4.720;2024-02-28T02:12:07;101891.72;;;5.38;100.00
18436;BME280;9346;52.006;4.720;2024-02-28T02:14:33;101894.06;;;5.35;100.00
18436;BME280;9346;52.006;4.720;2024-02-28T02:17:02;101888.63;;;5.35;100.00
18436;BME280;9346;52.006;4.720;2024-02-28T02:19:29;101883.97;;;5.35;100.00
18436;BME280;9346;52.006;4.720;2024-02-28T02:21:58;101886.91;;;5.34;100.00
18436;BME280;9346;52.006;4.720;2024-02-28T02:24:26;101890.50;;;5.34;100.00
18436;BME280;9346;52.006;4.720;2024-02-28T02:26:55;101883.16;;;5.35;100.00
18436;BME280;9346;52.006;4.720;2024-02-28T02:29:22;101889.66;;;5.34;100.00
18436;BME280;9346;52.006;4.720;2024-02-28T02:31:48;101885.25;;;5.33;100.00
18436;BME280;9346;52.006;4.720;2024-02-28T02:34:15;101886.31;;;5.32;100.00
18436;BME280;9346;52.006;4.720;2024-02-28T02:36:42;101891.34;;;5.28;100.00
18436;BME280;9346;52.006;4.720;2024-02-28T02:39:09;101895.34;;;5.26;100.00
18436;BME280;9346;52.006;4.720;2024-02-28T02:41:37;101902.91;;;5.24;100.00
18436;BME280;9346;52.006;4.720;2024-02-28T02:44:04;101907.56;;;5.23;100.00
18436;BME280;9346;52.006;4.720;2024-02-28T02:46:31;101904.63;;;5.25;100.00
18436;BME280;9346;52.006;4.720;2024-02-28T02:48:58;101895.34;;;5.19;100.00
18436;BME280;9346;52.006;4.720;2024-02-28T02:51:24;101894.97;;;5.16;100.00
18436;BME280;9346;52.006;4.720;2024-02-28T02:53:51;101888.88;;;5.14;100.00
18436;BME280;9346;52.006;4.720;2024-02-28T02:56:19;101898.13;;;5.13;100.00
18436;BME280;9346;52.006;4.720;2024-02-28T02:58:47;101890.13;;;5.11;100.00
18436;BME280;9346;52.006;4.720;2024-02-28T03:01:14;101886.56;;;5.11;100.00
18436;BME280;9346;52.006;4.720;2024-02-28T03:03:40;101895.19;;;5.14;100.00
18436;BME280;9346;52.006;4.720;2024-02-28T03:06:07;101882.75;;;5.18;100.00
18436;BME280;9346;52.006;4.720;2024-02-28T03:08:35;101884.84;;;5.23;100.00
18436;BME280;9346;52.006;4.720;2024-02-28T03:11:02;101882.53;;;5.26;100.00
18436;BME280;9346;52.006;4.720;2024-02-28T03:13:29;101891.78;;;5.25;100.00
18436;BME280;9346;52.006;4.720;2024-02-28T03:15:57;101889.91;;;5.26;100.00
18436;BME280;9346;52.006;4.720;2024-02-28T03:18:24;101888.63;;;5.28;100.00
18436;BME280;9346;52.006;4.720;2024-02-28T03:20:51;101895.31;;;5.32;100.00
18436;BME280;9346;52.006;4.720;2024-02-28T03:23:18;101889.44;;;5.35;100.00
18436;BME280;9346;52.006;4.720;2024-02-28T03:25:44;101883.13;;;5.41;100.00
18436;BME280;9346;52.006;4.720;2024-02-28T03:28:11;101889.44;;;5.42;100.00
18436;BME280;9346;52.006;4.720;2024-02-28T03:30:38;101887.28;;;5.44;100.00
18436;BME280;9346;52.006;4.720;2024-02-28T03:33:06;101883.53;;;5.45;100.00
18436;BME280;9346;52.006;4.720;2024-02-28T03:35:33;101879.53;;;5.47;100.00
18436;BME280;9346;52.006;4.720;2024-02-28T03:38:00;101885.84;;;5.48;100.00
18436;BME280;9346;52.006;4.720;2024-02-28T03:40:26;101887.72;;;5.47;100.00
18436;BME280;9346;52.006;4.720;2024-02-28T03:42:53;101884.78;;;5.49;100.00
18436;BME280;9346;52.006;4.720;2024-02-28T03:45:20;101884.78;;;5.49;100.00
18436;BME280;9346;52.006;4.720;2024-02-28T03:47:47;101878.25;;;5.50;100.00
18436;BME280;9346;52.006;4.720;2024-02-28T03:50:15;101872.34;;;5.53;100.00
18436;BME280;9346;52.006;4.720;2024-02-28T03:52:42;101882.84;;;5.56;100.00
18436;BME280;9346;52.006;4.720;2024-02-28T03:55:09;101885.59;;;5.56;100.00
18436;BME280;9346;52.006;4.720;2024-02-28T03:57:36;101876.72;;;5.60;100.00
18436;BME280;9346;52.006;4.720;2024-02-28T04:00:03;101881.13;;;5.61;100.00
18436;BME280;9346;52.006;4.720;2024-02-28T04:02:31;101883.88;;;5.61;100.00
18436;BME280;9346;52.006;4.720;2024-02-28T04:04:58;101879.25;;;5.62;100.00
18436;BME280;9346;52.006;4.720;2024-02-28T04:07:26;101878.19;;;5.63;100.00
18436;BME280;9346;52.006;4.720;2024-02-28T04:09:52;101876.09;;;5.65;100.00
18436;BME280;9346;52.006;4.720;2024-02-28T04:12:19;101891.00;;;5.69;100.00
18436;BME280;9346;52.006;4.720;2024-02-28T04:14:46;101888.91;;;5.71;100.00
18436;BME280;9346;52.006;4.720;2024-02-28T04:17:13;101885.09;;;5.72;100.00
18436;BME280;9346;52.006;4.720;2024-02-28T04:19:40;101883.81;;;5.74;100.00
18436;BME280;9346;52.006;4.720;2024-02-28T04:22:06;101885.50;;;5.75;100.00
18436;BME280;9346;52.006;4.720;2024-02-28T04:24:35;101887.19;;;5.76;100.00
18436;BME280;9346;52.006;4.720;2024-02-28T04:27:01;101893.28;;;5.78;100.00
18436;BME280;9346;52.006;4.720;2024-02-28T04:29:30;101891.81;;;5.82;100.00
18436;BME280;9346;52.006;4.720;2024-02-28T04:31:57;101896.44;;;5.82;100.00
18436;BME280;9346;52.006;4.720;2024-02-28T04:34:23;101898.13;;;5.83;100.00
18436;BME280;9346;52.006;4.720;2024-02-28T04:36:50;101910.72;;;5.84;100.00
18436;BME280;9346;52.006;4.720;2024-02-28T04:39:16;101916.38;;;5.89;100.00
18436;BME280;9346;52.006;4.720;2024-02-28T04:41:45;101918.88;;;5.90;100.00
18436;BME280;9346;52.006;4.720;2024-02-28T04:44:11;101917.44;;;5.94;100.00
18436;BME280;9346;52.006;4.720;2024-02-28T04:46:39;101919.50;;;5.99;100.00
18436;BME280;9346;52.006;4.720;2024-02-28T04:49:05;101923.91;;;6.00;100.00
18436;BME280;9346;52.006;4.720;2024-02-28T04:51:33;101923.69;;;6.01;100.00
18436;BME280;9346;52.006;4.720;2024-02-28T04:54:00;101925.34;;;6.02;100.00
18436;BME280;9346;52.006;4.720;2024-02-28T04:56:27;101926.00;;;6.04;100.00
18436;BME280;9346;52.006;4.720;2024-02-28T04:58:55;101925.78;;;6.06;100.00
18436;BME280;9346;52.006;4.720;2024-02-28T05:01:21;101920.09;;;6.07;100.00
18436;BME280;9346;52.006;4.720;2024-02-28T05:03:48;101925.94;;;6.11;100.00
18436;BME280;9346;52.006;4.720;2024-02-28T05:06:15;101914.19;;;6.10;100.00
18436;BME280;9346;52.006;4.720;2024-02-28T05:08:42;101918.59;;;6.11;100.00
18436;BME280;9346;52.006;4.720;2024-02-28T05:11:08;101919.88;;;6.09;100.00
18436;BME280;9346;52.006;4.720;2024-02-28T05:13:35;101917.13;;;6.09;100.00
18436;BME280;9346;52.006;4.720;2024-02-28T05:16:03;101918.81;;;6.10;100.00
18436;BME280;9346;52.006;4.720;2024-02-28T05:18:30;101916.91;;;6.10;100.00
18436;BME280;9346;52.006;4.720;2024-02-28T05:20:57;101916.69;;;6.12;100.00
18436;BME280;9346;52.006;4.720;2024-02-28T05:23:24;101925.94;;;6.11;100.00
18436;BME280;9346;52.006;4.720;2024-02-28T05:25:50;101919.44;;;6.12;100.00
18436;BME280;9346;52.006;4.720;2024-02-28T05:28:16;101923.84;;;6.13;100.00
18436;BME280;9346;52.006;4.720;2024-02-28T05:30:43;101922.56;;;6.15;100.00
18436;BME280;9346;52.006;4.720;2024-02-28T05:33:11;101908.06;;;6.15;100.00
18436;BME280;9346;52.006;4.720;2024-02-28T05:35:38;101915.19;;;6.16;100.00
18436;BME280;9346;52.006;4.720;2024-02-28T05:38:05;101914.34;;;6.15;100.00
18436;BME280;9346;52.006;4.720;2024-02-28T05:40:31;101916.84;;;6.17;100.00
18436;BME280;9346;52.006;4.720;2024-02-28T05:42:58;101914.75;;;6.19;100.00
18436;BME280;9346;52.006;4.720;2024-02-28T05:45:25;101916.84;;;6.23;100.00
18436;BME280;9346;52.006;4.720;2024-02-28T05:47:51;101923.31;;;6.29;100.00
18436;BME280;9346;52.006;4.720;2024-02-28T05:50:19;101920.97;;;6.32;100.00
18436;BME280;9346;52.006;4.720;2024-02-28T05:52:46;101926.63;;;6.37;100.00
18436;BME280;9346;52.006;4.720;2024-02-28T05:55:13;101922.59;;;6.40;100.00
18436;BME280;9346;52.006;4.720;2024-02-28T05:57:40;101925.56;;;6.38;100.00
18436;BME280;9346;52.006;4.720;2024-02-28T06:00:07;101926.84;;;6.36;100.00
18436;BME280;9346;52.006;4.720;2024-02-28T06:02:35;101913.38;;;6.34;100.00
18436;BME280;9346;52.006;4.720;2024-02-28T06:05:02;101913.59;;;6.33;100.00
18436;BME280;9346;52.006;4.720;2024-02-28T06:07:31;101908.13;;;6.33;100.00
18436;BME280;9346;52.006;4.720;2024-02-28T06:09:58;101920.97;;;6.32;100.00
18436;BME280;9346;52.006;4.720;2024-02-28T06:12:24;101917.41;;;6.32;100.00
18436;BME280;9346;52.006;4.720;2024-02-28T06:14:51;101925.41;;;6.33;100.00
18436;BME280;9346;52.006;4.720;2024-02-28T06:17:18;101921.38;;;6.36;100.00
18436;BME280;9346;52.006;4.720;2024-02-28T06:19:46;101928.06;;;6.40;100.00
18436;BME280;9346;52.006;4.720;2024-02-28T06:22:13;101925.97;;;6.42;100.00
18436;BME280;9346;52.006;4.720;2024-02-28T06:24:42;101934.81;;;6.44;100.00
18436;BME280;9346;52.006;4.720;2024-02-28T06:27:09;101937.28;;;6.45;100.00
18436;BME280;9346;52.006;4.720;2024-02-28T06:29:38;101943.41;;;6.47;100.00
18436;BME280;9346;52.006;4.720;2024-02-28T06:32:05;101941.88;;;6.51;100.00
18436;BME280;9346;52.006;4.720;2024-02-28T06:34:32;101938.94;;;6.53;100.00
18436;BME280;9346;52.006;4.720;2024-02-28T06:36:58;101957.28;;;6.52;100.00
18436;BME280;9346;52.006;4.720;2024-02-28T06:39:25;101947.78;;;6.55;100.00
18436;BME280;9346;52.006;4.720;2024-02-28T06:41:53;101957.06;;;6.54;100.00
18436;BME280;9346;52.006;4.720;2024-02-28T06:44:20;101968.59;;;6.56;100.00
18436;BME280;9346;52.006;4.720;2024-02-28T06:46:46;101974.09;;;6.56;100.00
18436;BME280;9346;52.006;4.720;2024-02-28T06:49:13;101974.72;;;6.58;100.00
18436;BME280;9346;52.006;4.720;2024-02-28T06:51:40;101976.16;;;6.60;100.00
18436;BME280;9346;52.006;4.720;2024-02-28T06:54:06;101974.88;;;6.63;100.00
18436;BME280;9346;52.006;4.720;2024-02-28T06:56:33;101972.75;;;6.65;100.00
18436;BME280;9346;52.006;4.720;2024-02-28T06:59:01;101970.66;;;6.67;100.00
18436;BME280;9346;52.006;4.720;2024-02-28T07:01:29;101969.81;;;6.66;100.00
18436;BME280;9346;52.006;4.720;2024-02-28T07:03:55;101978.44;;;6.70;100.00
18436;BME280;9346;52.006;4.720;2024-02-28T07:06:22;101974.63;;;6.71;100.00
18436;BME280;9346;52.006;4.720;2024-02-28T07:08:49;101979.88;;;6.72;100.00
18436;BME280;9346;52.006;4.720;2024-02-28T07:11:16;101985.34;;;6.72;100.00
18436;BME280;9346;52.006;4.720;2024-02-28T07:13:43;101970.81;;;6.72;100.00
18436;BME280;9346;52.006;4.720;2024-02-28T07:16:11;101980.47;;;6.74;100.00
18436;BME280;9346;52.006;4.720;2024-02-28T07:18:37;101984.91;;;6.75;100.00
18436;BME280;9346;52.006;4.720;2024-02-28T07:21:04;101978.59;;;6.75;100.00
18436;BME280;9346;52.006;4.720;2024-02-28T07:23:32;101991.44;;;6.74;100.00
18436;BME280;9346;52.006;4.720;2024-02-28T07:25:59;101985.94;;;6.74;100.00
18436;BME280;9346;52.006;4.720;2024-02-28T07:28:25;101985.94;;;6.74;100.00
18436;BME280;9346;52.006;4.720;2024-02-28T07:30:52;101992.28;;;6.75;100.00
18436;BME280;9346;52.006;4.720;2024-02-28T07:33:20;101991.44;;;6.74;100.00
18436;BME280;9346;52.006;4.720;2024-02-28T07:35:47;101997.75;;;6.75;100.00
18436;BME280;9346;52.006;4.720;2024-02-28T07:38:14;101998.97;;;6.79;100.00
18436;BME280;9346;52.006;4.720;2024-02-28T07:40:42;101997.09;;;6.79;100.00
18436;BME280;9346;52.006;4.720;2024-02-28T07:43:09;102003.41;;;6.80;100.00
18436;BME280;9346;52.006;4.720;2024-02-28T07:45:36;102004.00;;;6.82;100.00
18436;BME280;9346;52.006;4.720;2024-02-28T07:48:03;102006.53;;;6.83;100.00
18436;BME280;9346;52.006;4.720;2024-02-28T07:50:32;102009.91;;;6.85;100.00
18436;BME280;9346;52.006;4.720;2024-02-28T07:52:59;102016.00;;;6.88;100.00
18436;BME280;9346;52.006;4.720;2024-02-28T07:55:26;102016.38;;;6.91;100.00
18436;BME280;9346;52.006;4.720;2024-02-28T07:57:53;102023.31;;;6.93;100.00
18436;BME280;9346;52.006;4.720;2024-02-28T08:00:21;102018.25;;;6.97;100.00
18436;BME280;9346;52.006;4.720;2024-02-28T08:02:47;102020.31;;;7.02;100.00
18436;BME280;9346;52.006;4.720;2024-02-28T08:05:14;102032.72;;;7.04;100.00
18436;BME280;9346;52.006;4.720;2024-02-28T08:07:42;102031.44;;;7.07;100.00
18436;BME280;9346;52.006;4.720;2024-02-28T08:10:10;102035.44;;;7.11;100.00
18436;BME280;9346;52.006;4.720;2024-02-28T08:12:37;102030.31;;;7.14;100.00
18436;BME280;9346;52.006;4.720;2024-02-28T08:15:04;102030.72;;;7.18;100.00
18436;BME280;9346;52.006;4.720;2024-02-28T08:17:31;102036.56;;;7.21;100.00
18436;BME280;9346;52.006;4.720;2024-02-28T08:19:57;102043.31;;;7.25;100.00
18436;BME280;9346;52.006;4.720;2024-02-28T08:22:24;102045.38;;;7.30;100.00
18436;BME280;9346;52.006;4.720;2024-02-28T08:24:54;102049.94;;;7.36;100.00
18436;BME280;9346;52.006;4.720;2024-02-28T08:27:20;102059.66;;;7.38;100.00
18436;BME280;9346;52.006;4.720;2024-02-28T08:29:48;102063.63;;;7.42;100.00
18436;BME280;9346;52.006;4.720;2024-02-28T08:32:15;102050.53;;;7.44;100.00
18436;BME280;9346;52.006;4.720;2024-02-28T08:34:43;102063.78;;;7.47;100.00
18436;BME280;9346;52.006;4.720;2024-02-28T08:37:10;102062.28;;;7.51;100.00
18436;BME280;9346;52.006;4.720;2024-02-28T08:39:37;102062.06;;;7.53;100.00
18436;BME280;9346;52.006;4.720;2024-02-28T08:42:06;102069.81;;;7.56;100.00
18436;BME280;9346;52.006;4.720;2024-02-28T08:44:32;102066.63;;;7.59;100.00
18436;BME280;9346;52.006;4.720;2024-02-28T08:46:59;102059.41;;;7.64;100.00
18436;BME280;9346;52.006;4.720;2024-02-28T08:49:26;102063.13;;;7.70;100.00
18436;BME280;9346;52.006;4.720;2024-02-28T08:51:53;102061.84;;;7.72;100.00
18436;BME280;9346;52.006;4.720;2024-02-28T08:54:19;102056.75;;;7.76;100.00
18436;BME280;9346;52.006;4.720;2024-02-28T08:56:46;102055.91;;;7.75;100.00
18436;BME280;9346;52.006;4.720;2024-02-28T08:59:14;102048.06;;;7.79;100.00
18436;BME280;9346;52.006;4.720;2024-02-28T09:01:41;102046.78;;;7.81;100.00
18436;BME280;9346;52.006;4.720;2024-02-28T09:04:08;102049.28;;;7.83;100.00
18436;BME280;9346;52.006;4.720;2024-02-28T09:06:35;102044.88;;;7.82;100.00
18436;BME280;9346;52.006;4.720;2024-02-28T09:09:02;102045.25;;;7.85;100.00
18436;BME280;9346;52.006;4.720;2024-02-28T09:11:29;102048.84;;;7.86;100.00
18436;BME280;9346;52.006;4.720;2024-02-28T09:13:55;102048.16;;;7.90;100.00
18436;BME280;9346;52.006;4.720;2024-02-28T09:16:23;102056.53;;;7.95;100.00
18436;BME280;9346;52.006;4.720;2024-02-28T09:18:50;102058.59;;;8.00;100.00
18436;BME280;9346;52.006;4.720;2024-02-28T09:21:17;102057.91;;;8.04;100.00
18436;BME280;9346;52.006;4.720;2024-02-28T09:23:43;102061.88;;;8.08;100.00
18436;BME280;9346;52.006;4.720;2024-02-28T09:26:10;102054.88;;;8.12;100.00
18436;BME280;9346;52.006;4.720;2024-02-28T09:28:37;102055.00;;;8.17;100.00
18436;BME280;9346;52.006;4.720;2024-02-28T09:31:06;102049.72;;;8.22;100.00
18436;BME280;9346;52.006;4.720;2024-02-28T09:33:36;102058.31;;;8.26;100.00
18436;BME280;9346;52.006;4.720;2024-02-28T09:36:03;102058.47;;;8.31;100.00
18436;BME280;9346;52.006;4.720;2024-02-28T09:38:30;102071.28;;;8.37;100.00
18436;BME280;9346;52.006;4.720;2024-02-28T09:40:58;102066.78;;;8.42;100.00
18436;BME280;9346;52.006;4.720;2024-02-28T09:43:28;102066.44;;;8.50;100.00
18436;BME280;9346;52.006;4.720;2024-02-28T09:45:58;102061.72;;;8.57;100.00
18436;BME280;9346;52.006;4.720;2024-02-28T09:48:27;102068.44;;;8.61;100.00
18436;BME280;9346;52.006;4.720;2024-02-28T09:50:56;102062.72;;;8.63;100.00
18436;BME280;9346;52.006;4.720;2024-02-28T09:53:23;102073.59;;;8.69;100.00
18436;BME280;9346;52.006;4.720;2024-02-28T09:55:50;102064.41;;;8.75;100.00
18436;BME280;9346;52.006;4.720;2024-02-28T09:58:17;102061.38;;;8.83;100.00
18436;BME280;9346;52.006;4.720;2024-02-28T10:00:44;102060.44;;;8.89;100.00
18436;BME280;9346;52.006;4.720;2024-02-28T10:03:14;102055.28;;;8.93;100.00
18436;BME280;9346;52.006;4.720;2024-02-28T10:05:43;102057.22;;;8.92;100.00
18436;BME280;9346;52.006;4.720;2024-02-28T10:08:12;102056.72;;;8.95;100.00
18436;BME280;9346;52.006;4.720;2024-02-28T10:10:44;102050.53;;;9.00;100.00
18436;BME280;9346;52.006;4.720;2024-02-28T10:13:11;102043.75;;;9.02;100.00
18436;BME280;9346;52.006;4.720;2024-02-28T10:15:38;102049.97;;;9.09;100.00
18436;BME280;9346;52.006;4.720;2024-02-28T10:18:05;102044.81;;;9.13;100.00
18436;BME280;9346;52.006;4.720;2024-02-28T10:20:32;102051.53;;;9.17;100.00
18436;BME280;9346;52.006;4.720;2024-02-28T10:22:58;102038.38;;;9.19;100.00
18436;BME280;9346;52.006;4.720;2024-02-28T10:25:27;102040.81;;;9.27;100.00
18436;BME280;9346;52.006;4.720;2024-02-28T10:27:59;102047.25;;;9.33;100.00
18436;BME280;9346;52.006;4.720;2024-02-28T10:30:26;102032.56;;;9.39;100.00
18436;BME280;9346;52.006;4.720;2024-02-28T10:32:52;102032.44;;;9.45;100.00
18436;BME280;9346;52.006;4.720;2024-02-28T10:35:19;102036.75;;;9.53;100.00
18436;BME280;9346;52.006;4.720;2024-02-28T10:37:51;102039.88;;;9.56;100.00
18436;BME280;9346;52.006;4.720;2024-02-28T10:40:17;102036.88;;;9.58;100.00
18436;BME280;9346;52.006;4.720;2024-02-28T10:42:47;102035.56;;;9.60;100.00
18436;BME280;9346;52.006;4.720;2024-02-28T10:45:17;102039.75;;;9.63;100.00
18436;BME280;9346;52.006;4.720;2024-02-28T10:47:45;102051.13;;;9.66;100.00
18436;BME280;9346;52.006;4.720;2024-02-28T10:50:12;102043.81;;;9.72;100.00
18436;BME280;9346;52.006;4.720;2024-02-28T10:52:43;102043.72;;;9.78;100.00
18436;BME280;9346;52.006;4.720;2024-02-28T10:55:13;102041.53;;;9.80;100.00
18436;BME280;9346;52.006;4.720;2024-02-28T10:57:42;102043.09;;;9.88;100.00
18436;BME280;9346;52.006;4.720;2024-02-28T11:00:16;102042.97;;;9.94;100.00
18436;BME280;9346;52.006;4.720;2024-02-28T11:02:43;102047.63;;;9.94;100.00
18436;BME280;9346;52.006;4.720;2024-02-28T11:05:10;102049.28;;;9.95;100.00
18436;BME280;9346;52.006;4.720;2024-02-28T11:07:40;102046.69;;;10.00;100.00
18436;BME280;9346;52.006;4.720;2024-02-28T11:10:09;102044.66;;;10.07;100.00
18436;BME280;9346;52.006;4.720;2024-02-28T11:12:36;102047.78;;;10.10;100.00
18436;BME280;9346;52.006;4.720;2024-02-28T11:15:05;102031.25;;;10.10;100.00
18436;BME280;9346;52.006;4.720;2024-02-28T11:17:33;102029.31;;;10.11;100.00
18436;BME280;9346;52.006;4.720;2024-02-28T11:20:11;102028.59;;;10.15;100.00
18436;BME280;9346;52.006;4.720;2024-02-28T11:22:38;102035.03;;;10.21;100.00
18436;BME280;9346;52.006;4.720;2024-02-28T11:25:06;102039.56;;;10.27;100.00
18436;BME280;9346;52.006;4.720;2024-02-28T11:27:32;102036.94;;;10.32;100.00
18436;BME280;9346;52.006;4.720;2024-02-28T11:29:59;102028.69;;;10.32;100.00
18436;BME280;9346;52.006;4.720;2024-02-28T11:32:27;102030.94;;;10.35;100.00
18436;BME280;9346;52.006;4.720;2024-02-28T11:35:00;102017.19;;;10.35;100.00
18436;BME280;9346;52.006;4.720;2024-02-28T11:37:28;102028.19;;;10.35;100.00
18436;BME280;9346;52.006;4.720;2024-02-28T11:39:54;102019.94;;;10.35;100.00
18436;BME280;9346;52.006;4.720;2024-02-28T11:42:21;102017.75;;;10.37;100.00
18436;BME280;9346;52.006;4.720;2024-02-28T11:44:53;102021.00;;;10.34;100.00
18436;BME280;9346;52.006;4.720;2024-02-28T11:47:19;102022.94;;;10.33;100.00
18436;BME280;9346;52.006;4.720;2024-02-28T11:49:46;102018.72;;;10.31;100.00
18436;BME280;9346;52.006;4.720;2024-02-28T11:52:15;102017.66;;;10.32;100.00
18436;BME280;9346;52.006;4.720;2024-02-28T11:54:41;102005.06;;;10.36;100.00
18436;BME280;9346;52.006;4.720;2024-02-28T11:57:10;102005.44;;;10.39;100.00
18436;BME280;9346;52.006;4.720;2024-02-28T11:59:39;102013.78;;;10.44;100.00
18436;BME280;9346;52.006;4.720;2024-02-28T12:02:11;102016.53;;;10.44;100.00
18436;BME280;9346;52.006;4.720;2024-02-28T12:04:39;102009.13;;;10.45;100.00
18436;BME280;9346;52.006;4.720;2024-02-28T12:07:07;102012.81;;;10.50;100.00
18436;BME280;9346;52.006;4.720;2024-02-28T12:09:36;102004.28;;;10.52;100.00
18436;BME280;9346;52.006;4.720;2024-02-28T12:12:06;102004.91;;;10.54;100.00
18436;BME280;9346;52.006;4.720;2024-02-28T12:14:36;102004.66;;;10.55;100.00
18436;BME280;9346;52.006;4.720;2024-02-28T12:17:04;102014.91;;;10.60;100.00
18436;BME280;9346;52.006;4.720;2024-02-28T12:19:31;102010.59;;;10.64;100.00
18436;BME280;9346;52.006;4.720;2024-02-28T12:21:57;102010.34;;;10.65;100.00
18436;BME280;9346;52.006;4.720;2024-02-28T12:24:24;102004.84;;;10.65;100.00
18436;BME280;9346;52.006;4.720;2024-02-28T12:26:53;102002.34;;;10.64;100.00
18436;BME280;9346;52.006;4.720;2024-02-28T12:29:20;101999.09;;;10.67;100.00
18436;BME280;9346;52.006;4.720;2024-02-28T12:31:46;101997.38;;;10.66;100.00
18436;BME280;9346;52.006;4.720;2024-02-28T12:34:13;101984.94;;;10.63;100.00
18436;BME280;9346;52.006;4.720;2024-02-28T12:36:41;101986.38;;;10.66;100.00
18436;BME280;9346;52.006;4.720;2024-02-28T12:39:07;101984.72;;;10.65;100.00
18436;BME280;9346;52.006;4.720;2024-02-28T12:41:36;101997.56;;;10.59;100.00
18436;BME280;9346;52.006;4.720;2024-02-28T12:44:05;101988.94;;;10.56;100.00
18436;BME280;9346;52.006;4.720;2024-02-28T12:46:33;101997.19;;;10.56;100.00
18436;BME280;9346;52.006;4.720;2024-02-28T12:48:59;101994.19;;;10.57;100.00
18436;BME280;9346;52.006;4.720;2024-02-28T12:51:37;101992.88;;;10.60;100.00
18436;BME280;9346;52.006;4.720;2024-02-28T12:54:04;101993.97;;;10.59;100.00
18436;BME280;9346;52.006;4.720;2024-02-28T12:56:31;101995.63;;;10.60;100.00
18436;BME280;9346;52.006;4.720;2024-02-28T12:58:57;101996.22;;;10.62;100.00